createdAt,value
2017-10-15T00:00:25.455Z,10.37
2017-10-15T00:02:53.029Z,8.00
2017-10-15T00:05:20.659Z,11.03
2017-10-15T00:07:48.224Z,11.30
2017-10-15T00:10:15.800Z,12.13
2017-10-15T00:12:43.396Z,10.90
2017-10-15T00:15:10.969Z,10.03
2017-10-15T00:17:38.564Z,7.73
2017-10-15T00:20:06.142Z,10.33
2017-10-15T00:22:34.103Z,8.33
2017-10-15T00:25:01.677Z,11.03
2017-10-15T00:27:29.349Z,8.90
2017-10-15T00:29:56.928Z,12.43
2017-10-15T00:32:24.490Z,7.57
2017-10-15T00:34:52.076Z,10.73
2017-10-15T00:37:19.646Z,7.70
2017-10-15T00:39:47.236Z,8.37
2017-10-15T00:42:14.805Z,12.20
2017-10-15T00:44:42.771Z,12.00
2017-10-15T00:47:10.345Z,7.43
2017-10-15T00:49:37.907Z,7.43
2017-10-15T00:52:05.517Z,8.63
2017-10-15T00:54:33.094Z,8.30
2017-10-15T00:57:00.675Z,11.50
2017-10-15T00:59:28.331Z,8.30
2017-10-15T01:01:55.930Z,7.20
2017-10-15T01:04:23.846Z,6.60
2017-10-15T01:06:51.543Z,10.43
2017-10-15T01:09:19.123Z,10.57
2017-10-15T01:11:47.513Z,6.33
2017-10-15T01:14:15.107Z,10.40
2017-10-15T01:16:43.083Z,7.00
2017-10-15T01:19:10.654Z,9.23
2017-10-15T01:21:38.201Z,10.20
2017-10-15T01:24:05.831Z,6.73
2017-10-15T01:26:33.405Z,6.43
2017-10-15T01:29:01.906Z,10.40
2017-10-15T01:31:29.649Z,9.80
2017-10-15T01:33:57.549Z,10.53
2017-10-15T01:36:25.461Z,7.77
2017-10-15T01:38:53.090Z,14.60
2017-10-15T01:41:21.771Z,9.60
2017-10-15T01:43:50.589Z,9.43
2017-10-15T01:46:18.159Z,8.93
2017-10-15T01:48:45.743Z,6.77
2017-10-15T01:51:13.315Z,6.93
2017-10-15T01:53:40.869Z,7.80
2017-10-15T01:56:08.752Z,7.07
2017-10-15T01:58:36.713Z,8.97
2017-10-15T02:01:04.259Z,5.87
2017-10-15T02:03:31.837Z,6.03
2017-10-15T02:05:59.391Z,5.77
2017-10-15T02:08:26.966Z,6.50
2017-10-15T02:10:54.528Z,7.83
2017-10-15T02:13:22.401Z,8.37
2017-10-15T02:15:49.962Z,7.17
2017-10-15T02:18:17.536Z,9.90
2017-10-15T02:20:45.120Z,17.13
2017-10-15T02:23:12.678Z,22.63
2017-10-15T02:25:40.261Z,17.93
2017-10-15T02:28:07.825Z,22.50
2017-10-15T02:30:35.860Z,12.93
2017-10-15T02:33:03.454Z,18.40
2017-10-15T02:35:31.043Z,13.87
2017-10-15T02:37:58.637Z,14.53
2017-10-15T02:40:26.210Z,23.53
2017-10-15T02:42:53.784Z,19.70
2017-10-15T02:45:21.345Z,15.60
2017-10-15T02:47:49.471Z,18.40
2017-10-15T02:50:17.478Z,15.73
2017-10-15T02:52:45.504Z,15.67
2017-10-15T02:55:13.082Z,17.80
2017-10-15T02:57:40.785Z,18.17
2017-10-15T03:00:08.353Z,12.50
2017-10-15T03:02:35.912Z,13.10
2017-10-15T03:05:04.143Z,15.17
2017-10-15T03:07:31.727Z,19.83
2017-10-15T03:09:59.722Z,11.33
2017-10-15T03:12:27.406Z,10.73
2017-10-15T03:14:54.965Z,10.43
2017-10-15T03:17:22.557Z,11.20
2017-10-15T03:19:50.129Z,11.90
2017-10-15T03:22:17.743Z,12.47
2017-10-15T03:24:45.296Z,12.10
2017-10-15T03:27:12.911Z,13.43
2017-10-15T03:29:40.466Z,19.30
2017-10-15T03:32:08.040Z,9.43
2017-10-15T03:34:35.611Z,18.07
2017-10-15T03:37:03.206Z,9.30
2017-10-15T03:39:30.853Z,11.57
2017-10-15T03:41:58.406Z,10.90
2017-10-15T03:44:26.382Z,9.43
2017-10-15T03:46:54.050Z,10.53
2017-10-15T03:49:21.659Z,10.73
2017-10-15T03:51:49.225Z,10.70
2017-10-15T03:54:18.531Z,10.43
2017-10-15T03:56:46.098Z,10.13
2017-10-15T03:59:13.761Z,8.87
2017-10-15T04:01:41.409Z,10.13
2017-10-15T04:04:09.651Z,8.40
2017-10-15T04:06:37.226Z,11.37
2017-10-15T04:09:04.794Z,11.10
2017-10-15T04:11:32.540Z,11.90
2017-10-15T04:14:00.138Z,14.80
2017-10-15T04:16:27.728Z,12.97
2017-10-15T04:18:55.293Z,9.40
2017-10-15T04:21:22.848Z,10.50
2017-10-15T04:23:50.468Z,16.40
2017-10-15T04:26:18.036Z,30.50
2017-10-15T04:28:45.620Z,15.40
2017-10-15T04:31:13.173Z,18.03
2017-10-15T04:33:41.092Z,21.70
2017-10-15T04:36:08.662Z,9.03
2017-10-15T04:38:37.680Z,9.40
2017-10-15T04:41:05.252Z,11.93
2017-10-15T04:43:32.805Z,22.43
2017-10-15T04:46:00.410Z,15.90
2017-10-15T04:48:28.444Z,12.13
2017-10-15T04:50:56.010Z,7.37
2017-10-15T04:53:23.578Z,15.57
2017-10-15T04:55:51.599Z,10.00
2017-10-15T04:58:19.164Z,7.83
2017-10-15T05:00:47.061Z,22.67
2017-10-15T05:03:14.654Z,13.80
2017-10-15T05:05:42.204Z,9.57
2017-10-15T05:08:09.790Z,13.13
2017-10-15T05:10:37.394Z,7.00
2017-10-15T05:13:04.983Z,15.60
2017-10-15T05:15:32.552Z,22.20
2017-10-15T05:18:00.096Z,14.47
2017-10-15T05:20:27.685Z,41.97
2017-10-15T05:22:55.249Z,13.30
2017-10-15T05:25:22.869Z,11.10
2017-10-15T05:27:50.436Z,19.87
2017-10-15T05:30:18.038Z,22.97
2017-10-15T05:32:45.606Z,13.63
2017-10-15T05:35:13.558Z,10.67
2017-10-15T05:37:41.133Z,11.60
2017-10-15T05:40:08.726Z,17.77
2017-10-15T05:42:36.272Z,14.03
2017-10-15T05:45:03.820Z,13.43
2017-10-15T05:47:31.579Z,11.77
2017-10-15T05:50:00.406Z,13.90
2017-10-15T05:52:28.018Z,19.63
2017-10-15T05:54:55.565Z,18.27
2017-10-15T05:57:23.153Z,11.90
2017-10-15T05:59:50.741Z,16.77
2017-10-15T06:02:18.331Z,13.60
2017-10-15T06:04:45.887Z,11.27
2017-10-15T06:07:13.487Z,21.50
2017-10-15T06:09:41.272Z,15.57
2017-10-15T06:12:08.827Z,19.23
2017-10-15T06:14:36.415Z,24.83
2017-10-15T06:17:03.968Z,11.37
2017-10-15T06:19:31.547Z,45.27
2017-10-15T06:21:59.110Z,34.03
2017-10-15T06:24:27.277Z,58.57
2017-10-15T06:26:54.854Z,90.30
2017-10-15T06:29:25.248Z,74.43
2017-10-15T06:31:52.879Z,71.00
2017-10-15T06:34:20.472Z,42.87
2017-10-15T06:36:48.056Z,44.83
2017-10-15T06:39:15.617Z,28.97
2017-10-15T06:41:43.216Z,28.67
2017-10-15T06:44:10.790Z,11.87
2017-10-15T06:46:38.368Z,27.40
2017-10-15T06:49:05.908Z,47.23
2017-10-15T06:51:33.471Z,18.57
2017-10-15T06:54:01.044Z,18.37
2017-10-15T06:56:28.597Z,22.30
2017-10-15T06:58:56.502Z,14.10
2017-10-15T07:01:24.079Z,11.00
2017-10-15T07:03:52.194Z,28.90
2017-10-15T07:06:19.752Z,19.30
2017-10-15T07:08:47.346Z,24.83
2017-10-15T07:11:14.941Z,15.37
2017-10-15T07:13:42.518Z,29.77
2017-10-15T07:16:10.110Z,17.00
2017-10-15T07:18:37.794Z,20.97
2017-10-15T07:21:05.359Z,33.20
2017-10-15T07:23:33.352Z,13.60
2017-10-15T07:26:01.175Z,15.33
2017-10-15T07:28:28.762Z,33.80
2017-10-15T07:30:56.566Z,25.63
2017-10-15T07:33:24.151Z,25.93
2017-10-15T07:35:52.074Z,23.83
2017-10-15T07:38:19.655Z,31.00
2017-10-15T07:40:47.239Z,18.07
2017-10-15T07:43:14.849Z,12.23
2017-10-15T07:45:42.451Z,15.77
2017-10-15T07:48:10.236Z,11.47
2017-10-15T07:50:38.688Z,19.13
2017-10-15T07:53:06.669Z,17.23
2017-10-15T07:55:34.566Z,14.60
2017-10-15T07:58:02.142Z,14.43
2017-10-15T08:00:29.741Z,12.33
2017-10-15T08:02:57.322Z,13.00
2017-10-15T08:05:24.913Z,13.43
2017-10-15T08:07:53.179Z,14.60
2017-10-15T08:10:20.792Z,15.83
2017-10-15T08:12:48.403Z,22.17
2017-10-15T08:15:16.135Z,13.53
2017-10-15T08:17:43.764Z,12.73
2017-10-15T08:20:11.333Z,15.60
2017-10-15T08:22:39.050Z,16.10
2017-10-15T08:25:07.040Z,13.70
2017-10-15T08:27:34.646Z,15.83
2017-10-15T08:30:02.235Z,16.47
2017-10-15T08:32:29.824Z,16.70
2017-10-15T08:34:57.449Z,15.70
2017-10-15T08:37:25.034Z,15.77
2017-10-15T08:39:52.621Z,18.17
2017-10-15T08:42:20.209Z,22.87
2017-10-15T08:44:47.825Z,17.93
2017-10-15T08:47:15.424Z,19.43
2017-10-15T08:49:43.019Z,18.00
2017-10-15T08:52:11.178Z,19.87
2017-10-15T08:54:38.769Z,20.97
2017-10-15T08:57:06.892Z,19.57
2017-10-15T08:59:34.496Z,23.93
2017-10-15T09:02:02.098Z,23.27
2017-10-15T09:04:29.727Z,21.47
2017-10-15T09:06:57.331Z,18.27
2017-10-15T09:09:25.129Z,17.30
2017-10-15T09:11:52.803Z,22.60
2017-10-15T09:14:20.419Z,20.67
2017-10-15T09:16:48.004Z,20.67
2017-10-15T09:19:15.637Z,18.00
2017-10-15T09:21:43.329Z,21.50
2017-10-15T09:24:10.949Z,21.50
2017-10-15T09:26:38.543Z,17.40
2017-10-15T09:29:06.310Z,21.17
2017-10-15T09:31:33.883Z,15.70
2017-10-15T09:34:01.588Z,20.70
2017-10-15T09:36:29.202Z,19.40
2017-10-15T09:38:56.840Z,20.67
2017-10-15T09:41:24.450Z,21.17
2017-10-15T09:43:52.706Z,25.80
2017-10-15T09:46:20.332Z,24.77
2017-10-15T09:48:47.912Z,19.30
2017-10-15T09:51:15.509Z,17.70
2017-10-15T09:53:43.188Z,18.33
2017-10-15T09:56:10.824Z,19.87
2017-10-15T09:58:38.609Z,19.47
2017-10-15T10:01:06.272Z,18.13
2017-10-15T10:03:33.856Z,14.37
2017-10-15T10:06:01.483Z,17.07
2017-10-15T10:08:29.267Z,19.80
2017-10-15T10:10:56.852Z,15.67
2017-10-15T10:13:24.428Z,16.70
2017-10-15T10:15:52.002Z,16.03
2017-10-15T10:18:19.604Z,17.60
2017-10-15T10:20:47.616Z,14.77
2017-10-15T10:23:15.202Z,16.43
2017-10-15T10:25:42.798Z,12.47
2017-10-15T10:28:10.392Z,14.47
2017-10-15T10:30:38.017Z,18.50
2017-10-15T10:33:05.603Z,18.87
2017-10-15T10:35:33.212Z,13.53
2017-10-15T10:38:01.349Z,14.20
2017-10-15T10:40:29.008Z,14.53
2017-10-15T10:42:56.598Z,14.17
2017-10-15T10:45:24.180Z,14.37
2017-10-15T10:47:51.786Z,15.10
2017-10-15T10:50:19.376Z,14.67
2017-10-15T10:52:46.978Z,15.30
2017-10-15T10:55:14.650Z,15.50
2017-10-15T10:57:42.266Z,14.17
2017-10-15T11:00:09.837Z,18.63
2017-10-15T11:02:37.802Z,18.13
2017-10-15T11:05:05.404Z,16.83
2017-10-15T11:07:33.005Z,15.77
2017-10-15T11:10:00.609Z,18.03
2017-10-15T11:12:28.174Z,19.57
2017-10-15T11:14:57.063Z,17.90
2017-10-15T11:17:24.671Z,17.07
2017-10-15T11:19:52.537Z,23.67
2017-10-15T11:22:20.329Z,17.00
2017-10-15T11:24:47.900Z,18.80
2017-10-15T11:27:15.521Z,19.80
2017-10-15T11:29:43.122Z,18.70
2017-10-15T11:32:10.877Z,18.27
2017-10-15T11:34:38.454Z,19.87
2017-10-15T11:37:06.050Z,15.50
2017-10-15T11:39:33.782Z,20.90
2017-10-15T11:42:01.746Z,17.90
2017-10-15T11:44:29.308Z,15.37
2017-10-15T11:46:56.915Z,17.83
2017-10-15T11:49:24.538Z,16.10
2017-10-15T11:51:52.748Z,17.67
2017-10-15T11:54:21.349Z,13.93
2017-10-15T11:56:48.920Z,17.80
2017-10-15T11:59:16.907Z,13.63
2017-10-15T12:01:44.496Z,16.33
2017-10-15T12:04:12.506Z,15.43
2017-10-15T12:06:40.087Z,17.67
2017-10-15T12:09:07.667Z,15.80
2017-10-15T12:11:35.812Z,19.00
2017-10-15T12:14:03.412Z,16.60
2017-10-15T12:16:31.026Z,18.97
2017-10-15T12:18:58.632Z,18.80
2017-10-15T12:21:26.234Z,19.63
2017-10-15T12:23:53.813Z,17.87
2017-10-15T12:26:21.420Z,19.70
2017-10-15T12:28:49.383Z,15.50
2017-10-15T12:31:16.962Z,18.07
2017-10-15T12:33:44.905Z,17.63
2017-10-15T12:36:12.484Z,25.13
2017-10-15T12:38:40.059Z,14.90
2017-10-15T12:41:07.643Z,14.57
2017-10-15T12:43:35.440Z,15.60
2017-10-15T12:46:03.033Z,17.83
2017-10-15T12:48:30.613Z,17.77
2017-10-15T12:50:58.424Z,14.00
2017-10-15T12:53:26.123Z,15.77
2017-10-15T12:55:53.755Z,12.93
2017-10-15T12:58:21.306Z,13.87
2017-10-15T13:00:48.924Z,14.00
2017-10-15T13:03:16.517Z,15.70
2017-10-15T13:05:44.089Z,10.30
2017-10-15T13:08:11.678Z,10.60
2017-10-15T13:10:39.291Z,12.10
2017-10-15T13:13:06.896Z,12.67
2017-10-15T13:15:34.474Z,11.07
2017-10-15T13:18:02.102Z,11.27
2017-10-15T13:20:29.673Z,8.60
2017-10-15T13:22:57.260Z,8.60
2017-10-15T13:25:25.259Z,18.53
2017-10-15T13:27:52.831Z,9.60
2017-10-15T13:30:20.450Z,7.40
2017-10-15T13:32:48.017Z,8.10
2017-10-15T13:35:15.981Z,7.90
2017-10-15T13:37:43.554Z,6.80
2017-10-15T13:40:11.174Z,8.90
2017-10-15T13:42:38.867Z,11.17
2017-10-15T13:45:06.556Z,8.73
2017-10-15T13:47:34.134Z,5.50
2017-10-15T13:50:01.724Z,6.47
2017-10-15T13:52:29.307Z,6.53
2017-10-15T13:54:56.907Z,4.80
2017-10-15T13:57:24.514Z,5.30
2017-10-15T13:59:52.089Z,6.43
2017-10-15T14:02:19.665Z,4.60
2017-10-15T14:04:47.209Z,3.47
2017-10-15T14:07:15.191Z,3.30
2017-10-15T14:09:42.796Z,3.03
2017-10-15T14:12:10.439Z,11.10
2017-10-15T14:14:38.041Z,5.00
2017-10-15T14:17:06.419Z,5.60
2017-10-15T14:19:34.873Z,4.60
2017-10-15T14:22:02.552Z,6.60
2017-10-15T14:24:30.134Z,4.53
2017-10-15T14:26:57.700Z,5.20
2017-10-15T14:29:25.655Z,3.73
2017-10-15T14:31:53.233Z,5.77
2017-10-15T14:34:21.004Z,5.57
2017-10-15T14:36:48.589Z,6.33
2017-10-15T14:39:16.268Z,9.33
2017-10-15T14:41:43.864Z,4.10
2017-10-15T14:44:11.614Z,4.03
2017-10-15T14:46:39.597Z,4.67
2017-10-15T14:49:07.284Z,3.70
2017-10-15T14:51:35.454Z,4.00
2017-10-15T14:54:03.214Z,7.03
2017-10-15T14:56:31.234Z,4.57
2017-10-15T14:58:58.827Z,5.17
2017-10-15T15:01:26.495Z,5.83
2017-10-15T15:03:54.103Z,4.73
2017-10-15T15:06:21.699Z,3.70
2017-10-15T15:08:49.335Z,3.37
2017-10-15T15:11:17.657Z,6.60
2017-10-15T15:13:45.221Z,8.80
2017-10-15T15:16:12.820Z,4.57
2017-10-15T15:18:40.432Z,2.97
2017-10-15T15:21:13.065Z,8.83
2017-10-15T15:23:40.641Z,3.10
2017-10-15T15:26:08.648Z,3.83
2017-10-15T15:28:36.276Z,6.03
2017-10-15T15:31:03.867Z,6.17
2017-10-15T15:33:32.023Z,4.63
2017-10-15T15:36:01.068Z,3.70
2017-10-15T15:38:28.703Z,4.60
2017-10-15T15:40:56.328Z,5.03
2017-10-15T15:43:23.943Z,3.70
2017-10-15T15:45:51.563Z,5.87
2017-10-15T15:48:19.179Z,3.83
2017-10-15T15:50:46.782Z,3.53
2017-10-15T15:53:14.424Z,4.40
2017-10-15T15:55:41.990Z,4.20
2017-10-15T15:58:10.474Z,5.93
2017-10-15T16:00:39.401Z,4.20
2017-10-15T16:16:12.203Z,7.95
2017-10-15T16:18:39.766Z,6.43
2017-10-15T16:21:07.385Z,9.40
2017-10-15T16:23:36.210Z,6.00
2017-10-15T16:26:03.916Z,6.10
2017-10-15T16:28:31.549Z,7.17
2017-10-15T16:31:01.000Z,6.80
2017-10-15T16:33:29.928Z,5.63
2017-10-15T16:35:57.517Z,6.93
2017-10-15T16:38:25.098Z,13.80
2017-10-15T16:40:53.437Z,13.67
2017-10-15T16:43:22.271Z,12.30
2017-10-15T16:45:49.916Z,8.20
2017-10-15T16:48:17.576Z,9.13
2017-10-15T16:50:45.185Z,6.90
2017-10-15T16:53:12.960Z,7.77
2017-10-15T16:55:40.713Z,16.47
2017-10-15T16:58:08.357Z,11.43
2017-10-15T17:00:35.965Z,8.43
2017-10-15T17:03:03.637Z,6.93
2017-10-15T17:05:31.703Z,8.17
2017-10-15T17:07:59.517Z,11.33
2017-10-15T17:10:27.199Z,11.63
2017-10-15T17:12:54.949Z,7.83
2017-10-15T17:19:27.627Z,11.73
2017-10-15T17:21:55.299Z,12.77
2017-10-15T17:25:22.594Z,7.57
2017-10-15T17:27:50.302Z,7.40
2017-10-15T17:30:18.180Z,9.73
2017-10-15T17:32:46.051Z,9.50
2017-10-15T17:35:13.842Z,7.30
2017-10-15T17:37:41.633Z,5.87
2017-10-15T17:40:09.587Z,8.97
2017-10-15T17:42:37.392Z,6.03
2017-10-15T17:45:05.205Z,9.53
2017-10-15T17:47:33.426Z,8.30
2017-10-15T17:50:01.383Z,7.73
2017-10-15T17:52:29.302Z,6.00
2017-10-15T17:54:57.175Z,8.77
2017-10-15T17:57:25.141Z,7.93
2017-10-15T17:59:53.105Z,13.30
2017-10-15T18:02:31.031Z,8.83
2017-10-15T18:04:58.883Z,9.77
2017-10-15T18:07:26.797Z,9.37
2017-10-15T18:09:54.617Z,8.90
2017-10-15T18:12:22.459Z,13.10
2017-10-15T18:14:50.348Z,10.80
2017-10-15T18:17:18.229Z,16.80
2017-10-15T18:19:46.184Z,21.97
2017-10-15T18:22:14.047Z,16.40
2017-10-15T18:24:42.022Z,8.63
2017-10-15T18:27:10.211Z,9.50
2017-10-15T18:29:38.168Z,6.77
2017-10-15T18:32:06.729Z,7.70
2017-10-15T18:34:34.727Z,7.70
2017-10-15T18:37:02.691Z,6.80
2017-10-15T18:39:30.888Z,6.80
2017-10-15T18:41:59.422Z,6.77
2017-10-15T18:44:27.422Z,13.00
2017-10-15T18:46:55.347Z,6.83
2017-10-15T18:49:23.358Z,7.13
2017-10-15T18:51:52.070Z,7.70
2017-10-15T18:54:20.120Z,8.53
2017-10-15T18:56:50.440Z,10.80
2017-10-15T18:59:21.420Z,6.07
2017-10-15T19:01:49.574Z,6.47
2017-10-15T19:04:17.545Z,9.73
2017-10-15T19:06:45.487Z,9.00
2017-10-15T19:09:14.188Z,8.37
2017-10-15T19:11:42.189Z,5.83
2017-10-15T19:14:10.228Z,6.43
2017-10-15T19:16:38.194Z,8.50
2017-10-15T19:19:06.241Z,5.77
2017-10-15T19:21:34.241Z,7.60
2017-10-15T19:24:02.202Z,6.23
2017-10-15T19:29:02.765Z,6.10
2017-10-15T19:31:31.237Z,11.50
2017-10-15T19:34:00.630Z,7.37
2017-10-15T19:36:28.639Z,7.27
2017-10-15T19:38:57.600Z,7.57
2017-10-15T19:41:25.581Z,6.43
2017-10-15T19:43:53.591Z,5.63
2017-10-15T19:46:21.605Z,8.07
2017-10-15T19:48:50.863Z,7.97
2017-10-15T19:51:19.764Z,5.77
2017-10-15T19:53:49.001Z,5.60
2017-10-15T19:56:17.792Z,9.10
2017-10-15T19:58:45.758Z,6.70
2017-10-15T20:01:13.749Z,7.90
2017-10-15T20:03:42.496Z,13.13
2017-10-15T20:06:10.391Z,6.87
2017-10-15T20:08:38.464Z,8.17
2017-10-15T20:24:12.868Z,6.87
2017-10-15T20:26:40.709Z,13.43
2017-10-15T20:29:09.008Z,14.53
2017-10-15T20:31:36.871Z,7.63
2017-10-15T20:34:04.714Z,7.27
2017-10-15T20:36:32.518Z,7.03
2017-10-15T20:39:00.269Z,13.03
2017-10-15T20:41:28.042Z,7.10
2017-10-15T20:43:55.784Z,6.23
2017-10-15T20:46:23.636Z,5.97
2017-10-15T20:48:51.531Z,10.20
2017-10-15T20:51:19.289Z,7.00
2017-10-15T20:53:46.966Z,5.57
2017-10-15T20:56:14.646Z,5.80
2017-10-15T20:58:42.279Z,6.47
2017-10-15T21:01:09.966Z,11.00
2017-10-15T21:03:37.572Z,6.90
2017-10-15T21:06:05.148Z,7.50
2017-10-15T21:08:32.701Z,6.37
2017-10-15T21:11:00.282Z,7.37
2017-10-15T21:13:27.873Z,10.47
2017-10-15T21:15:55.435Z,7.07
2017-10-15T21:18:23.039Z,7.03
2017-10-15T21:20:50.628Z,7.50
2017-10-15T21:23:18.230Z,11.83
2017-10-15T21:25:45.824Z,7.70
2017-10-15T21:28:13.399Z,8.70
2017-10-15T21:30:40.972Z,10.43
2017-10-15T21:33:08.537Z,6.10
2017-10-15T21:35:36.132Z,5.50
2017-10-15T21:38:03.854Z,6.77
2017-10-15T21:40:31.452Z,5.10
2017-10-15T21:42:59.007Z,6.57
2017-10-15T21:45:26.616Z,5.03
2017-10-15T21:47:54.180Z,6.43
2017-10-15T21:50:21.778Z,6.83
2017-10-15T21:52:49.341Z,7.30
2017-10-15T21:55:16.984Z,6.00
2017-10-15T21:57:44.560Z,6.63
2017-10-15T22:00:12.124Z,5.43
2017-10-15T22:02:39.798Z,5.20
2017-10-15T22:05:07.357Z,5.87
2017-10-15T22:07:34.954Z,8.20
2017-10-15T22:10:02.510Z,7.60
2017-10-15T22:12:30.391Z,7.17
2017-10-15T22:14:58.203Z,7.97
2017-10-15T22:17:26.178Z,8.20
2017-10-15T22:19:53.775Z,5.23
2017-10-15T22:22:25.389Z,6.20
2017-10-15T22:24:52.990Z,7.60
2017-10-15T22:27:20.537Z,5.43
2017-10-15T22:29:48.133Z,8.30
2017-10-15T22:32:15.705Z,5.30
2017-10-15T22:34:43.322Z,5.00
2017-10-15T22:37:11.075Z,5.70
2017-10-15T22:39:38.999Z,11.07
2017-10-15T22:42:06.569Z,9.10
2017-10-15T22:44:34.143Z,5.07
2017-10-15T22:47:01.731Z,5.00
2017-10-15T22:49:29.296Z,4.53
2017-10-15T22:51:56.932Z,7.30
2017-10-15T22:54:24.514Z,5.00
2017-10-15T22:56:52.111Z,5.97
2017-10-15T22:59:19.684Z,4.90
2017-10-15T23:01:47.365Z,9.27
2017-10-15T23:04:14.944Z,5.67
2017-10-15T23:06:42.540Z,4.73
2017-10-15T23:09:10.111Z,6.53
2017-10-15T23:11:37.660Z,10.57
2017-10-15T23:14:05.286Z,5.90
2017-10-15T23:16:32.833Z,4.53
2017-10-15T23:19:00.396Z,4.20
2017-10-15T23:21:27.955Z,3.93
2017-10-15T23:23:55.545Z,5.90
2017-10-15T23:26:23.107Z,5.07
2017-10-15T23:28:51.009Z,6.27
2017-10-15T23:31:19.490Z,6.07
2017-10-15T23:33:47.052Z,5.10
2017-10-15T23:36:14.640Z,13.40
2017-10-15T23:38:42.213Z,8.63
2017-10-15T23:41:09.815Z,20.90
2017-10-15T23:43:37.364Z,23.03
2017-10-15T23:46:04.950Z,12.50
2017-10-15T23:48:32.601Z,9.63
2017-10-15T23:51:00.180Z,9.90
2017-10-15T23:53:27.760Z,7.03
2017-10-15T23:55:55.377Z,7.77
2017-10-15T23:58:22.970Z,5.87
